TAM3775 SBCT-SBBR
Flight info
| Callsign | TAM3775 |
|---|---|
| Flight time | 1h 34m |
| Altitude | 33000 |
| Route | GIKLU UZ5 VUDOT |
| Aircraft | A321/M-SDE3FGHIRWY/LB1 |
Departure
| Time | 2026-04-29 22:49 |
|---|---|
| Airport | Curitiba-Afonso Pena International Airport (SBCT) |
Arrival
| Time | 2026-04-30 00:24 |
|---|---|
| Airport | Presidente Juscelino Kubitschek International Airport (SBBR) |
| Time | Latitude | Longitude | Altitude | Speed | Heading |
|---|---|---|---|---|---|
| 2026-04-29 21:41 | -25.53643 | -49.17116 | 2998 ft | 0 kts | 210° |
| 2026-04-29 22:37 | -25.53639 | -49.17113 | 2998 ft | 2 kts | 210° |
| 2026-04-29 22:37 | -25.53625 | -49.17105 | 2998 ft | 2 kts | 212° |
| 2026-04-29 22:37 | -25.53615 | -49.17092 | 2998 ft | 2 kts | 246° |
| 2026-04-29 22:37 | -25.53612 | -49.17076 | 2997 ft | 2 kts | 272° |
| 2026-04-29 22:38 | -25.53615 | -49.17059 | 2997 ft | 2 kts | 299° |
| 2026-04-29 22:38 | -25.53620 | -49.17051 | 2997 ft | 1 kts | 314° |
| 2026-04-29 22:38 | -25.53625 | -49.17046 | 2997 ft | 0 kts | 315° |
| 2026-04-29 22:40 | -25.53625 | -49.17047 | 2997 ft | 0 kts | 315° |
| 2026-04-29 22:40 | -25.53624 | -49.17048 | 2997 ft | 0 kts | 315° |
| 2026-04-29 22:40 | -25.53615 | -49.17058 | 2997 ft | 3 kts | 313° |
| 2026-04-29 22:41 | -25.53593 | -49.17084 | 2997 ft | 5 kts | 313° |
| 2026-04-29 22:41 | -25.53562 | -49.17119 | 2997 ft | 6 kts | 315° |
| 2026-04-29 22:41 | -25.53524 | -49.17146 | 2997 ft | 6 kts | 1° |
| 2026-04-29 22:41 | -25.53485 | -49.17120 | 2997 ft | 6 kts | 27° |
| 2026-04-29 22:42 | -25.53443 | -49.17134 | 2997 ft | 7 kts | 319° |
| 2026-04-29 22:42 | -25.53401 | -49.17180 | 2997 ft | 8 kts | 314° |
| 2026-04-29 22:42 | -25.53357 | -49.17230 | 2997 ft | 9 kts | 314° |
| 2026-04-29 22:42 | -25.53308 | -49.17284 | 2997 ft | 10 kts | 315° |
| 2026-04-29 22:43 | -25.53256 | -49.17342 | 2997 ft | 10 kts | 314° |
| 2026-04-29 22:43 | -25.53202 | -49.17403 | 2997 ft | 11 kts | 314° |
| 2026-04-29 22:43 | -25.53145 | -49.17467 | 2997 ft | 11 kts | 314° |
| 2026-04-29 22:43 | -25.53085 | -49.17534 | 2997 ft | 12 kts | 314° |
| 2026-04-29 22:44 | -25.53024 | -49.17602 | 2997 ft | 12 kts | 314° |
| 2026-04-29 22:44 | -25.52990 | -49.17685 | 2997 ft | 11 kts | 272° |
| 2026-04-29 22:44 | -25.52987 | -49.17774 | 2997 ft | 11 kts | 272° |
| 2026-04-29 22:44 | -25.52976 | -49.17857 | 2997 ft | 10 kts | 295° |
| 2026-04-29 22:45 | -25.52927 | -49.17921 | 2997 ft | 11 kts | 315° |
| 2026-04-29 22:45 | -25.52866 | -49.17978 | 2997 ft | 11 kts | 338° |
| 2026-04-29 22:45 | -25.52782 | -49.17986 | 2997 ft | 12 kts | 358° |
| 2026-04-29 22:45 | -25.52701 | -49.17990 | 2997 ft | 8 kts | 358° |
| 2026-04-29 22:46 | -25.52643 | -49.17992 | 2997 ft | 8 kts | 357° |
| 2026-04-29 22:46 | -25.52574 | -49.17995 | 2997 ft | 11 kts | 358° |
| 2026-04-29 22:46 | -25.52495 | -49.17999 | 2997 ft | 11 kts | 352° |
| 2026-04-29 22:46 | -25.52427 | -49.18045 | 2997 ft | 11 kts | 317° |
| 2026-04-29 22:47 | -25.52367 | -49.18111 | 2997 ft | 12 kts | 315° |
| 2026-04-29 22:47 | -25.52307 | -49.18179 | 2997 ft | 11 kts | 314° |
| 2026-04-29 22:47 | -25.52245 | -49.18219 | 2997 ft | 10 kts | 351° |
| 2026-04-29 22:47 | -25.52210 | -49.18261 | 2997 ft | 6 kts | 256° |
| 2026-04-29 22:48 | -25.52226 | -49.18269 | 2997 ft | 1 kts | 144° |
| 2026-04-29 22:48 | -25.52229 | -49.18266 | 2997 ft | 0 kts | 135° |
| 2026-04-29 22:48 | -25.52350 | -49.18131 | 2997 ft | 62 kts | 134° |
| 2026-04-29 22:49 | -25.52835 | -49.17590 | 2998 ft | 134 kts | 134° |
| 2026-04-29 22:49 | -25.53638 | -49.16688 | 3100 ft | 182 kts | 134° |
| 2026-04-29 22:49 | -25.54499 | -49.15718 | 3858 ft | 174 kts | 133° |
| 2026-04-29 22:49 | -25.55328 | -49.14710 | 4203 ft | 183 kts | 120° |
| 2026-04-29 22:50 | -25.55533 | -49.13320 | 4411 ft | 193 kts | 70° |
| 2026-04-29 22:50 | -25.54874 | -49.12016 | 4706 ft | 203 kts | 53° |
| 2026-04-29 22:50 | -25.54019 | -49.10697 | 5001 ft | 218 kts | 52° |
| 2026-04-29 22:50 | -25.53126 | -49.09256 | 5257 ft | 237 kts | 54° |
| 2026-04-29 22:51 | -25.52197 | -49.07664 | 5617 ft | 252 kts | 55° |
| 2026-04-29 22:51 | -25.51275 | -49.06000 | 6221 ft | 258 kts | 56° |
| 2026-04-29 22:51 | -25.49391 | -49.02530 | 7398 ft | 268 kts | 52° |
| 2026-04-29 22:52 | -25.48084 | -49.01136 | 7926 ft | 263 kts | 20° |
| 2026-04-29 22:52 | -25.46344 | -49.00814 | 8521 ft | 253 kts | 348° |
| 2026-04-29 22:52 | -25.44644 | -49.01275 | 9160 ft | 253 kts | 341° |
| 2026-04-29 22:52 | -25.42926 | -49.01739 | 9790 ft | 255 kts | 342° |
| 2026-04-29 22:53 | -25.41192 | -49.02167 | 10440 ft | 256 kts | 343° |
| 2026-04-29 22:53 | -25.39446 | -49.02578 | 11053 ft | 258 kts | 343° |
| 2026-04-29 22:53 | -25.37675 | -49.02981 | 11572 ft | 263 kts | 343° |
| 2026-04-29 22:53 | -25.35825 | -49.03395 | 11846 ft | 278 kts | 343° |
| 2026-04-29 22:54 | -25.33875 | -49.03829 | 12103 ft | 292 kts | 344° |
| 2026-04-29 22:54 | -25.31840 | -49.04272 | 12451 ft | 302 kts | 344° |
| 2026-04-29 22:54 | -25.29767 | -49.04718 | 12970 ft | 304 kts | 344° |
| 2026-04-29 22:54 | -25.27680 | -49.05161 | 13494 ft | 306 kts | 344° |
| 2026-04-29 22:55 | -25.25604 | -49.05603 | 13988 ft | 309 kts | 343° |
| 2026-04-29 22:55 | -25.23482 | -49.06055 | 14531 ft | 310 kts | 343° |
| 2026-04-29 22:55 | -25.21356 | -49.06507 | 15015 ft | 312 kts | 343° |
| 2026-04-29 22:55 | -25.19210 | -49.06966 | 15431 ft | 316 kts | 343° |
| 2026-04-29 22:56 | -25.17037 | -49.07427 | 15842 ft | 320 kts | 343° |
| 2026-04-29 22:56 | -25.14840 | -49.07892 | 16283 ft | 322 kts | 342° |
| 2026-04-29 22:56 | -25.12629 | -49.08363 | 16715 ft | 324 kts | 342° |
| 2026-04-29 22:56 | -25.10407 | -49.08836 | 17183 ft | 325 kts | 342° |
| 2026-04-29 22:57 | -25.08171 | -49.09313 | 17599 ft | 328 kts | 342° |
| 2026-04-29 22:57 | -25.05917 | -49.09791 | 17994 ft | 331 kts | 342° |
| 2026-04-29 22:57 | -25.03647 | -49.10276 | 18391 ft | 333 kts | 342° |
| 2026-04-29 22:57 | -25.01364 | -49.10762 | 18819 ft | 334 kts | 342° |
| 2026-04-29 22:58 | -24.99097 | -49.11242 | 19198 ft | 336 kts | 342° |
| 2026-04-29 22:58 | -24.96785 | -49.11733 | 19549 ft | 339 kts | 342° |
| 2026-04-29 22:58 | -24.94459 | -49.12228 | 19924 ft | 341 kts | 342° |
| 2026-04-29 22:58 | -24.92120 | -49.12722 | 20310 ft | 342 kts | 342° |
| 2026-04-29 22:59 | -24.89770 | -49.13221 | 20669 ft | 344 kts | 342° |
| 2026-04-29 22:59 | -24.87413 | -49.13719 | 21062 ft | 345 kts | 342° |
| 2026-04-29 22:59 | -24.85017 | -49.14225 | 21422 ft | 348 kts | 341° |
| 2026-04-29 22:59 | -24.82627 | -49.14731 | 21756 ft | 350 kts | 342° |
| 2026-04-29 23:00 | -24.80223 | -49.15240 | 22096 ft | 352 kts | 341° |
| 2026-04-29 23:00 | -24.77838 | -49.15743 | 22419 ft | 355 kts | 341° |
| 2026-04-29 23:00 | -24.75400 | -49.16256 | 22734 ft | 358 kts | 341° |
| 2026-04-29 23:00 | -24.72944 | -49.16779 | 23070 ft | 360 kts | 341° |
| 2026-04-29 23:01 | -24.70479 | -49.17300 | 23446 ft | 361 kts | 341° |
| 2026-04-29 23:01 | -24.68009 | -49.17819 | 23840 ft | 361 kts | 342° |
| 2026-04-29 23:01 | -24.65534 | -49.18341 | 24200 ft | 362 kts | 342° |
| 2026-04-29 23:01 | -24.63045 | -49.18867 | 24518 ft | 365 kts | 342° |
| 2026-04-29 23:02 | -24.60544 | -49.19397 | 24861 ft | 366 kts | 342° |
| 2026-04-29 23:02 | -24.58027 | -49.19927 | 25161 ft | 369 kts | 341° |
| 2026-04-29 23:02 | -24.55491 | -49.20464 | 25476 ft | 371 kts | 341° |
| 2026-04-29 23:02 | -24.52947 | -49.20996 | 25821 ft | 372 kts | 341° |
| 2026-04-29 23:03 | -24.50392 | -49.21536 | 26127 ft | 374 kts | 342° |
| 2026-04-29 23:03 | -24.47819 | -49.22077 | 26423 ft | 376 kts | 342° |
| 2026-04-29 23:03 | -24.45271 | -49.22612 | 26719 ft | 379 kts | 342° |
| 2026-04-29 23:03 | -24.42674 | -49.23158 | 27036 ft | 380 kts | 342° |
| 2026-04-29 23:04 | -24.40072 | -49.23707 | 27396 ft | 380 kts | 342° |
| 2026-04-29 23:04 | -24.37463 | -49.24254 | 27683 ft | 382 kts | 342° |
| 2026-04-29 23:04 | -24.34836 | -49.24808 | 27942 ft | 385 kts | 342° |
| 2026-04-29 23:04 | -24.32192 | -49.25362 | 28216 ft | 387 kts | 342° |
| 2026-04-29 23:05 | -24.29536 | -49.25917 | 28512 ft | 388 kts | 342° |
| 2026-04-29 23:05 | -24.26866 | -49.26476 | 28773 ft | 391 kts | 342° |
| 2026-04-29 23:05 | -24.24188 | -49.27041 | 29068 ft | 392 kts | 342° |
| 2026-04-29 23:05 | -24.21504 | -49.27603 | 29370 ft | 393 kts | 342° |
| 2026-04-29 23:06 | -24.18805 | -49.28165 | 29594 ft | 395 kts | 342° |
| 2026-04-29 23:06 | -24.16091 | -49.28737 | 29850 ft | 397 kts | 343° |
| 2026-04-29 23:06 | -24.13367 | -49.29307 | 30100 ft | 399 kts | 343° |
| 2026-04-29 23:06 | -24.10628 | -49.29880 | 30335 ft | 400 kts | 342° |
| 2026-04-29 23:07 | -24.07920 | -49.30445 | 30579 ft | 402 kts | 342° |
| 2026-04-29 23:07 | -24.05161 | -49.31022 | 30783 ft | 404 kts | 342° |
| 2026-04-29 23:07 | -24.02378 | -49.31601 | 31000 ft | 406 kts | 342° |
| 2026-04-29 23:07 | -23.99578 | -49.32188 | 31197 ft | 408 kts | 342° |
| 2026-04-29 23:08 | -23.96780 | -49.32772 | 31420 ft | 409 kts | 342° |
| 2026-04-29 23:08 | -23.93973 | -49.33357 | 31651 ft | 410 kts | 342° |
| 2026-04-29 23:08 | -23.91159 | -49.33944 | 31854 ft | 412 kts | 342° |
| 2026-04-29 23:08 | -23.88335 | -49.34533 | 32024 ft | 414 kts | 342° |
| 2026-04-29 23:09 | -23.85483 | -49.35129 | 32226 ft | 416 kts | 342° |
| 2026-04-29 23:09 | -23.82590 | -49.35730 | 32444 ft | 416 kts | 342° |
| 2026-04-29 23:09 | -23.79742 | -49.36323 | 32612 ft | 418 kts | 342° |
| 2026-04-29 23:09 | -23.76863 | -49.36922 | 32783 ft | 420 kts | 342° |
| 2026-04-29 23:10 | -23.73981 | -49.37524 | 32958 ft | 422 kts | 342° |
| 2026-04-29 23:10 | -23.71082 | -49.38127 | 33071 ft | 424 kts | 342° |
| 2026-04-29 23:10 | -23.65291 | -49.39331 | 33069 ft | 426 kts | 343° |
| 2026-04-29 23:11 | -23.59460 | -49.40540 | 33066 ft | 426 kts | 342° |
| 2026-04-29 23:11 | -23.53619 | -49.41753 | 33065 ft | 427 kts | 342° |
| 2026-04-29 23:12 | -23.47710 | -49.42715 | 33064 ft | 431 kts | 348° |
| 2026-04-29 23:12 | -23.41659 | -49.42893 | 33062 ft | 437 kts | 355° |
| 2026-04-29 23:13 | -23.35550 | -49.42225 | 33058 ft | 444 kts | 2° |
| 2026-04-29 23:13 | -23.29502 | -49.40842 | 33058 ft | 447 kts | 6° |
| 2026-04-29 23:14 | -23.23418 | -49.39348 | 33055 ft | 447 kts | 6° |
| 2026-04-29 23:14 | -23.17342 | -49.37783 | 33056 ft | 449 kts | 7° |
| 2026-04-29 23:15 | -23.11279 | -49.36089 | 33062 ft | 448 kts | 7° |
| 2026-04-29 23:15 | -23.05223 | -49.34407 | 33066 ft | 448 kts | 7° |
| 2026-04-29 23:16 | -22.99196 | -49.32743 | 33069 ft | 449 kts | 7° |
| 2026-04-29 23:16 | -22.93123 | -49.31071 | 33070 ft | 448 kts | 7° |
| 2026-04-29 23:17 | -22.87077 | -49.29409 | 33067 ft | 447 kts | 7° |
| 2026-04-29 23:17 | -22.81001 | -49.27740 | 33060 ft | 448 kts | 8° |
| 2026-04-29 23:18 | -22.74943 | -49.26074 | 33054 ft | 446 kts | 7° |
| 2026-04-29 23:18 | -22.68911 | -49.24417 | 33051 ft | 446 kts | 8° |
| 2026-04-29 23:19 | -22.62877 | -49.22760 | 33051 ft | 447 kts | 8° |
| 2026-04-29 23:19 | -22.56885 | -49.21118 | 33054 ft | 446 kts | 8° |
| 2026-04-29 23:20 | -22.50858 | -49.19414 | 33054 ft | 447 kts | 8° |
| 2026-04-29 23:20 | -22.44838 | -49.17692 | 33054 ft | 446 kts | 8° |
| 2026-04-29 23:21 | -22.38835 | -49.15986 | 33052 ft | 444 kts | 8° |
| 2026-04-29 23:21 | -22.32855 | -49.14485 | 33053 ft | 443 kts | 6° |
| 2026-04-29 23:22 | -22.26811 | -49.13307 | 33049 ft | 439 kts | 2° |
| 2026-04-29 23:22 | -22.20748 | -49.12384 | 33042 ft | 439 kts | 2° |
| 2026-04-29 23:23 | -22.14688 | -49.11424 | 33037 ft | 439 kts | 2° |
| 2026-04-29 23:23 | -22.08634 | -49.10444 | 33034 ft | 438 kts | 2° |
| 2026-04-29 23:24 | -22.02628 | -49.09501 | 33032 ft | 438 kts | 2° |
| 2026-04-29 23:24 | -21.96569 | -49.08553 | 33028 ft | 438 kts | 2° |
| 2026-04-29 23:25 | -21.90524 | -49.07605 | 33025 ft | 438 kts | 2° |
| 2026-04-29 23:25 | -21.84461 | -49.06656 | 33027 ft | 439 kts | 2° |
| 2026-04-29 23:26 | -21.78400 | -49.05707 | 33025 ft | 439 kts | 2° |
| 2026-04-29 23:26 | -21.72335 | -49.04757 | 33026 ft | 439 kts | 3° |
| 2026-04-29 23:27 | -21.66268 | -49.03809 | 33022 ft | 439 kts | 3° |
| 2026-04-29 23:27 | -21.60237 | -49.02869 | 33028 ft | 440 kts | 2° |
| 2026-04-29 23:28 | -21.54170 | -49.01923 | 33031 ft | 440 kts | 3° |
| 2026-04-29 23:28 | -21.48096 | -49.00978 | 33030 ft | 440 kts | 3° |
| 2026-04-29 23:29 | -21.42020 | -49.00031 | 33031 ft | 440 kts | 3° |
| 2026-04-29 23:29 | -21.35930 | -48.99083 | 33025 ft | 440 kts | 3° |
| 2026-04-29 23:30 | -21.29897 | -48.98144 | 33024 ft | 440 kts | 3° |
| 2026-04-29 23:30 | -21.23817 | -48.97199 | 33020 ft | 441 kts | 3° |
| 2026-04-29 23:31 | -21.17724 | -48.96254 | 33026 ft | 441 kts | 3° |
| 2026-04-29 23:31 | -21.11628 | -48.95311 | 33028 ft | 441 kts | 3° |
| 2026-04-29 23:32 | -21.05528 | -48.94366 | 33026 ft | 442 kts | 3° |
| 2026-04-29 23:32 | -20.99459 | -48.93427 | 33035 ft | 442 kts | 4° |
| 2026-04-29 23:33 | -20.93360 | -48.92482 | 33031 ft | 441 kts | 4° |
| 2026-04-29 23:33 | -20.87255 | -48.91538 | 33035 ft | 442 kts | 4° |
| 2026-04-29 23:34 | -20.81139 | -48.90593 | 33032 ft | 441 kts | 4° |
| 2026-04-29 23:34 | -20.75040 | -48.89650 | 33029 ft | 442 kts | 4° |
| 2026-04-29 23:35 | -20.68985 | -48.88717 | 33027 ft | 442 kts | 4° |
| 2026-04-29 23:35 | -20.62885 | -48.87778 | 33025 ft | 442 kts | 4° |
| 2026-04-29 23:36 | -20.56781 | -48.86839 | 33025 ft | 442 kts | 4° |
| 2026-04-29 23:36 | -20.50679 | -48.85901 | 33025 ft | 442 kts | 4° |
| 2026-04-29 23:37 | -20.44572 | -48.84962 | 33026 ft | 442 kts | 4° |
| 2026-04-29 23:37 | -20.38459 | -48.84024 | 33020 ft | 442 kts | 4° |
| 2026-04-29 23:38 | -20.32394 | -48.83092 | 33019 ft | 442 kts | 4° |
| 2026-04-29 23:38 | -20.26286 | -48.82153 | 33020 ft | 442 kts | 4° |
| 2026-04-29 23:39 | -20.20180 | -48.81221 | 33024 ft | 442 kts | 4° |
| 2026-04-29 23:39 | -20.14076 | -48.80287 | 33023 ft | 442 kts | 4° |
| 2026-04-29 23:40 | -20.07968 | -48.79354 | 33028 ft | 442 kts | 4° |
| 2026-04-29 23:40 | -20.01855 | -48.78421 | 33034 ft | 443 kts | 5° |
| 2026-04-29 23:41 | -19.95728 | -48.77485 | 33044 ft | 443 kts | 5° |
| 2026-04-29 23:41 | -19.89652 | -48.76557 | 33047 ft | 442 kts | 5° |
| 2026-04-29 23:42 | -19.83519 | -48.75623 | 33054 ft | 442 kts | 5° |
| 2026-04-29 23:42 | -19.77412 | -48.74692 | 33063 ft | 442 kts | 5° |
| 2026-04-29 23:43 | -19.71305 | -48.73761 | 33065 ft | 442 kts | 5° |
| 2026-04-29 23:43 | -19.65239 | -48.72838 | 33070 ft | 442 kts | 5° |
| 2026-04-29 23:44 | -19.59128 | -48.71910 | 33071 ft | 442 kts | 5° |
| 2026-04-29 23:44 | -19.53013 | -48.70980 | 33075 ft | 443 kts | 5° |
| 2026-04-29 23:45 | -19.46890 | -48.70052 | 33085 ft | 443 kts | 5° |
| 2026-04-29 23:45 | -19.40769 | -48.69122 | 33089 ft | 443 kts | 5° |
| 2026-04-29 23:46 | -19.34658 | -48.68196 | 33091 ft | 442 kts | 5° |
| 2026-04-29 23:46 | -19.28591 | -48.67276 | 33094 ft | 442 kts | 5° |
| 2026-04-29 23:47 | -19.22479 | -48.66351 | 33093 ft | 442 kts | 5° |
| 2026-04-29 23:47 | -19.16360 | -48.65425 | 33099 ft | 444 kts | 5° |
| 2026-04-29 23:48 | -19.10226 | -48.64502 | 33099 ft | 444 kts | 5° |
| 2026-04-29 23:48 | -19.04099 | -48.63577 | 33106 ft | 443 kts | 5° |
| 2026-04-29 23:49 | -18.98018 | -48.62659 | 33108 ft | 443 kts | 5° |
| 2026-04-29 23:49 | -18.91900 | -48.61736 | 33108 ft | 443 kts | 5° |
| 2026-04-29 23:50 | -18.85772 | -48.60813 | 33103 ft | 443 kts | 5° |
| 2026-04-29 23:51 | -18.76609 | -48.59433 | 33099 ft | 444 kts | 5° |
| 2026-04-29 23:51 | -18.70473 | -48.58509 | 33098 ft | 444 kts | 5° |
| 2026-04-29 23:52 | -18.64350 | -48.57589 | 33106 ft | 443 kts | 5° |
| 2026-04-29 23:52 | -18.58231 | -48.56672 | 33112 ft | 443 kts | 5° |
| 2026-04-29 23:53 | -18.52112 | -48.55755 | 33118 ft | 443 kts | 5° |
| 2026-04-29 23:53 | -18.46029 | -48.54842 | 33121 ft | 443 kts | 5° |
| 2026-04-29 23:54 | -18.39897 | -48.53923 | 33116 ft | 444 kts | 6° |
| 2026-04-29 23:54 | -18.33767 | -48.53003 | 33104 ft | 443 kts | 5° |
| 2026-04-29 23:55 | -18.27641 | -48.52087 | 33095 ft | 443 kts | 5° |
| 2026-04-29 23:55 | -18.21518 | -48.51175 | 33085 ft | 443 kts | 5° |
| 2026-04-29 23:56 | -18.15438 | -48.50269 | 33080 ft | 443 kts | 5° |
| 2026-04-29 23:56 | -18.09313 | -48.49355 | 33086 ft | 443 kts | 5° |
| 2026-04-29 23:57 | -18.03182 | -48.48440 | 33085 ft | 444 kts | 5° |
| 2026-04-29 23:57 | -17.97041 | -48.47525 | 33087 ft | 444 kts | 5° |
| 2026-04-29 23:58 | -17.90908 | -48.46611 | 33088 ft | 443 kts | 6° |
| 2026-04-29 23:58 | -17.84795 | -48.45701 | 33088 ft | 443 kts | 6° |
| 2026-04-29 23:59 | -17.78667 | -48.44789 | 33089 ft | 443 kts | 6° |
| 2026-04-29 23:59 | -17.72543 | -48.43879 | 33093 ft | 443 kts | 6° |
| 2026-04-30 00:00 | -17.66460 | -48.42976 | 33095 ft | 443 kts | 6° |
| 2026-04-30 00:00 | -17.60332 | -48.42065 | 33093 ft | 442 kts | 6° |
| 2026-04-30 00:00 | -17.57296 | -48.41615 | 32871 ft | 437 kts | 6° |
| 2026-04-30 00:01 | -17.54282 | -48.41167 | 32242 ft | 437 kts | 6° |
| 2026-04-30 00:01 | -17.51253 | -48.40720 | 31384 ft | 442 kts | 6° |
| 2026-04-30 00:01 | -17.48193 | -48.40267 | 30588 ft | 444 kts | 6° |
| 2026-04-30 00:01 | -17.45144 | -48.39816 | 30075 ft | 439 kts | 6° |
| 2026-04-30 00:02 | -17.42169 | -48.39374 | 29589 ft | 434 kts | 6° |
| 2026-04-30 00:02 | -17.39186 | -48.38932 | 29047 ft | 431 kts | 6° |
| 2026-04-30 00:02 | -17.36223 | -48.38492 | 28493 ft | 428 kts | 6° |
| 2026-04-30 00:02 | -17.33283 | -48.38056 | 27960 ft | 424 kts | 6° |
| 2026-04-30 00:03 | -17.30371 | -48.37625 | 27456 ft | 420 kts | 7° |
| 2026-04-30 00:03 | -17.27481 | -48.37198 | 26945 ft | 416 kts | 7° |
| 2026-04-30 00:03 | -17.24625 | -48.36776 | 26437 ft | 411 kts | 7° |
| 2026-04-30 00:03 | -17.21798 | -48.36358 | 25948 ft | 407 kts | 7° |
| 2026-04-30 00:04 | -17.19038 | -48.35950 | 25455 ft | 403 kts | 7° |
| 2026-04-30 00:04 | -17.16264 | -48.35540 | 24963 ft | 399 kts | 7° |
| 2026-04-30 00:04 | -17.13521 | -48.35135 | 24476 ft | 395 kts | 7° |
| 2026-04-30 00:04 | -17.10770 | -48.34729 | 23986 ft | 391 kts | 7° |
| 2026-04-30 00:05 | -17.08115 | -48.34336 | 23511 ft | 387 kts | 7° |
| 2026-04-30 00:05 | -17.05451 | -48.33943 | 23036 ft | 384 kts | 7° |
| 2026-04-30 00:05 | -17.02814 | -48.33554 | 22568 ft | 380 kts | 7° |
| 2026-04-30 00:05 | -17.00205 | -48.33169 | 22088 ft | 376 kts | 7° |
| 2026-04-30 00:06 | -16.97615 | -48.32787 | 21594 ft | 373 kts | 7° |
| 2026-04-30 00:06 | -16.95032 | -48.32407 | 21086 ft | 371 kts | 7° |
| 2026-04-30 00:06 | -16.92477 | -48.32030 | 20587 ft | 369 kts | 7° |
| 2026-04-30 00:06 | -16.89934 | -48.31655 | 20090 ft | 367 kts | 7° |
| 2026-04-30 00:07 | -16.87430 | -48.31287 | 19609 ft | 365 kts | 7° |
| 2026-04-30 00:07 | -16.84922 | -48.30917 | 19129 ft | 363 kts | 8° |
| 2026-04-30 00:07 | -16.82420 | -48.30548 | 18651 ft | 361 kts | 8° |
| 2026-04-30 00:07 | -16.79932 | -48.30182 | 18175 ft | 359 kts | 8° |
| 2026-04-30 00:08 | -16.77454 | -48.29817 | 17711 ft | 358 kts | 8° |
| 2026-04-30 00:08 | -16.74991 | -48.29454 | 17252 ft | 356 kts | 8° |
| 2026-04-30 00:08 | -16.72539 | -48.29094 | 16805 ft | 354 kts | 8° |
| 2026-04-30 00:08 | -16.70100 | -48.28736 | 16363 ft | 352 kts | 8° |
| 2026-04-30 00:09 | -16.67670 | -48.28379 | 15916 ft | 351 kts | 8° |
| 2026-04-30 00:09 | -16.65253 | -48.28025 | 15478 ft | 349 kts | 8° |
| 2026-04-30 00:09 | -16.62848 | -48.27671 | 15050 ft | 347 kts | 8° |
| 2026-04-30 00:09 | -16.60456 | -48.27320 | 14636 ft | 345 kts | 8° |
| 2026-04-30 00:10 | -16.58080 | -48.26971 | 14218 ft | 343 kts | 8° |
| 2026-04-30 00:10 | -16.55718 | -48.26624 | 13777 ft | 341 kts | 8° |
| 2026-04-30 00:10 | -16.53398 | -48.26284 | 13345 ft | 339 kts | 8° |
| 2026-04-30 00:10 | -16.51040 | -48.25938 | 12913 ft | 338 kts | 8° |
| 2026-04-30 00:11 | -16.48707 | -48.25596 | 12461 ft | 337 kts | 8° |
| 2026-04-30 00:11 | -16.46383 | -48.25255 | 12009 ft | 336 kts | 8° |
| 2026-04-30 00:11 | -16.44100 | -48.24920 | 11564 ft | 334 kts | 8° |
| 2026-04-30 00:11 | -16.41795 | -48.24582 | 11097 ft | 333 kts | 8° |
| 2026-04-30 00:12 | -16.39497 | -48.24245 | 10643 ft | 332 kts | 8° |
| 2026-04-30 00:12 | -16.37206 | -48.23909 | 10178 ft | 331 kts | 8° |
| 2026-04-30 00:12 | -16.34930 | -48.23575 | 9843 ft | 325 kts | 8° |
| 2026-04-30 00:12 | -16.32717 | -48.23251 | 9660 ft | 314 kts | 8° |
| 2026-04-30 00:13 | -16.30576 | -48.22938 | 9483 ft | 304 kts | 8° |
| 2026-04-30 00:13 | -16.28500 | -48.22635 | 9288 ft | 296 kts | 9° |
| 2026-04-30 00:13 | -16.26471 | -48.22338 | 8982 ft | 292 kts | 9° |
| 2026-04-30 00:13 | -16.24456 | -48.22044 | 8636 ft | 290 kts | 9° |
| 2026-04-30 00:14 | -16.22463 | -48.21752 | 8385 ft | 284 kts | 9° |
| 2026-04-30 00:14 | -16.20528 | -48.21468 | 8225 ft | 275 kts | 9° |
| 2026-04-30 00:14 | -16.18673 | -48.21198 | 8065 ft | 267 kts | 9° |
| 2026-04-30 00:14 | -16.16846 | -48.20931 | 7814 ft | 262 kts | 9° |
| 2026-04-30 00:15 | -16.15042 | -48.20666 | 7580 ft | 257 kts | 9° |
| 2026-04-30 00:15 | -16.13291 | -48.20408 | 7422 ft | 249 kts | 9° |
| 2026-04-30 00:15 | -16.11600 | -48.20158 | 7270 ft | 240 kts | 10° |
| 2026-04-30 00:15 | -16.09949 | -48.19912 | 7122 ft | 237 kts | 10° |
| 2026-04-30 00:16 | -16.08308 | -48.19669 | 6979 ft | 236 kts | 10° |
| 2026-04-30 00:16 | -16.06680 | -48.19427 | 6876 ft | 229 kts | 10° |
| 2026-04-30 00:16 | -16.05170 | -48.19204 | 6798 ft | 216 kts | 10° |
| 2026-04-30 00:16 | -16.03687 | -48.18984 | 6650 ft | 213 kts | 10° |
| 2026-04-30 00:17 | -16.02214 | -48.18765 | 6466 ft | 212 kts | 10° |
| 2026-04-30 00:17 | -16.00750 | -48.18547 | 6277 ft | 211 kts | 10° |
| 2026-04-30 00:17 | -15.99286 | -48.18359 | 6086 ft | 211 kts | 6° |
| 2026-04-30 00:17 | -15.97811 | -48.18369 | 5895 ft | 211 kts | 359° |
| 2026-04-30 00:18 | -15.96338 | -48.18462 | 5703 ft | 211 kts | 358° |
| 2026-04-30 00:18 | -15.94867 | -48.18570 | 5521 ft | 210 kts | 358° |
| 2026-04-30 00:18 | -15.93408 | -48.18543 | 5474 ft | 208 kts | 17° |
| 2026-04-30 00:18 | -15.92286 | -48.17674 | 5469 ft | 203 kts | 59° |
| 2026-04-30 00:19 | -15.91679 | -48.16369 | 5508 ft | 203 kts | 68° |
| 2026-04-30 00:19 | -15.91095 | -48.15029 | 5498 ft | 203 kts | 66° |
| 2026-04-30 00:19 | -15.90454 | -48.13706 | 5498 ft | 204 kts | 63° |
| 2026-04-30 00:19 | -15.89798 | -48.12405 | 5500 ft | 204 kts | 66° |
| 2026-04-30 00:20 | -15.89323 | -48.11018 | 5499 ft | 203 kts | 77° |
| 2026-04-30 00:20 | -15.89080 | -48.09559 | 5504 ft | 203 kts | 84° |
| 2026-04-30 00:20 | -15.88961 | -48.08096 | 5507 ft | 203 kts | 86° |
| 2026-04-30 00:20 | -15.88876 | -48.06630 | 5511 ft | 202 kts | 87° |
| 2026-04-30 00:21 | -15.88794 | -48.05224 | 5463 ft | 185 kts | 87° |
| 2026-04-30 00:21 | -15.88710 | -48.03910 | 5322 ft | 181 kts | 86° |
| 2026-04-30 00:21 | -15.88626 | -48.02619 | 5110 ft | 174 kts | 87° |
| 2026-04-30 00:21 | -15.88546 | -48.01408 | 4865 ft | 168 kts | 87° |
| 2026-04-30 00:22 | -15.88467 | -48.00203 | 4653 ft | 167 kts | 87° |
| 2026-04-30 00:22 | -15.88389 | -47.98998 | 4441 ft | 166 kts | 87° |
| 2026-04-30 00:22 | -15.88309 | -47.97802 | 4227 ft | 165 kts | 87° |
| 2026-04-30 00:22 | -15.88223 | -47.96611 | 4031 ft | 165 kts | 87° |
| 2026-04-30 00:23 | -15.88152 | -47.95424 | 3836 ft | 164 kts | 88° |
| 2026-04-30 00:23 | -15.88078 | -47.94259 | 3617 ft | 163 kts | 88° |
| 2026-04-30 00:23 | -15.88010 | -47.93110 | 3504 ft | 151 kts | 84° |
| 2026-04-30 00:23 | -15.87948 | -47.92196 | 3463 ft | 86 kts | 87° |
| 2026-04-30 00:24 | -15.87925 | -47.91920 | 3454 ft | 20 kts | 73° |
| 2026-04-30 00:24 | -15.87863 | -47.91792 | 3455 ft | 19 kts | 57° |
| 2026-04-30 00:24 | -15.87794 | -47.91684 | 3456 ft | 14 kts | 56° |
| 2026-04-30 00:24 | -15.87736 | -47.91595 | 3454 ft | 15 kts | 56° |
| 2026-04-30 00:25 | -15.87654 | -47.91554 | 3460 ft | 10 kts | 356° |
| 2026-04-30 00:25 | -15.87595 | -47.91559 | 3464 ft | 6 kts | 355° |
| 2026-04-30 00:25 | -15.87548 | -47.91562 | 3469 ft | 6 kts | 356° |
| 2026-04-30 00:25 | -15.87504 | -47.91564 | 3473 ft | 6 kts | 356° |
| 2026-04-30 00:26 | -15.87439 | -47.91568 | 3473 ft | 12 kts | 356° |
| 2026-04-30 00:26 | -15.87400 | -47.91571 | 3473 ft | 1 kts | 356° |